createdAt,value
2018-11-28T00:01:43.119Z,100.00
2018-11-28T00:04:14.821Z,100.00
2018-11-28T00:06:44.596Z,100.00
2018-11-28T00:09:14.108Z,100.00
2018-11-28T00:11:44.476Z,100.00
2018-11-28T00:14:13.362Z,100.00
2018-11-28T00:16:43.193Z,100.00
2018-11-28T00:19:12.641Z,100.00
2018-11-28T00:21:41.146Z,100.00
2018-11-28T00:24:13.254Z,100.00
2018-11-28T00:26:43.393Z,100.00
2018-11-28T00:29:13.038Z,100.00
2018-11-28T00:31:43.313Z,100.00
2018-11-28T00:34:15.458Z,100.00
2018-11-28T00:36:45.623Z,100.00
2018-11-28T00:39:15.810Z,100.00
2018-11-28T00:41:45.691Z,100.00
2018-11-28T00:44:14.440Z,100.00
2018-11-28T00:46:42.976Z,100.00
2018-11-28T00:49:12.914Z,100.00
2018-11-28T00:51:43.358Z,100.00
2018-11-28T00:54:13.322Z,100.00
2018-11-28T00:56:43.578Z,100.00
2018-11-28T00:59:13.955Z,100.00
2018-11-28T01:01:45.582Z,100.00
2018-11-28T01:04:15.366Z,100.00
2018-11-28T01:06:46.108Z,100.00
2018-11-28T01:09:16.548Z,100.00
2018-11-28T01:11:46.724Z,100.00
2018-11-28T01:14:16.463Z,100.00
2018-11-28T01:16:48.857Z,100.00
2018-11-28T01:19:19.263Z,100.00
2018-11-28T01:21:48.100Z,100.00
2018-11-28T01:24:18.287Z,100.00
2018-11-28T01:26:46.834Z,100.00
2018-11-28T01:29:16.875Z,100.00
2018-11-28T01:31:46.936Z,100.00
2018-11-28T01:34:17.433Z,100.00
2018-11-28T01:36:47.147Z,100.00
2018-11-28T01:39:15.720Z,100.00
2018-11-28T01:41:47.381Z,100.00
2018-11-28T01:44:18.529Z,100.00
2018-11-28T01:46:47.104Z,100.00
2018-11-28T01:49:21.143Z,100.00
2018-11-28T01:51:52.307Z,100.00
2018-11-28T01:54:22.574Z,100.00
2018-11-28T01:56:54.039Z,100.00
2018-11-28T01:59:24.879Z,100.00
2018-11-28T02:01:55.617Z,100.00
2018-11-28T02:04:24.195Z,100.00
2018-11-28T02:06:54.692Z,100.00
2018-11-28T02:09:23.668Z,100.00
2018-11-28T02:11:52.179Z,100.00
2018-11-28T02:14:20.680Z,100.00
2018-11-28T02:16:49.197Z,100.00
2018-11-28T02:19:21.133Z,100.00
2018-11-28T02:21:51.394Z,100.00
2018-11-28T02:24:22.697Z,100.00
2018-11-28T02:26:53.833Z,100.00
2018-11-28T02:29:22.475Z,100.00
2018-11-28T02:31:53.979Z,100.00
2018-11-28T02:34:25.100Z,100.00
2018-11-28T02:36:56.261Z,100.00
2018-11-28T02:39:24.896Z,100.00
2018-11-28T02:41:55.160Z,100.00
2018-11-28T02:44:24.657Z,100.00
2018-11-28T02:46:55.500Z,100.00
2018-11-28T02:49:25.822Z,100.00
2018-11-28T02:51:56.147Z,100.00
2018-11-28T02:54:26.269Z,100.00
2018-11-28T02:56:56.988Z,100.00
2018-11-28T02:59:28.340Z,100.00
2018-11-28T03:01:56.890Z,100.00
2018-11-28T03:04:26.418Z,100.00
2018-11-28T03:06:57.042Z,100.00
2018-11-28T03:09:28.219Z,100.00
2018-11-28T03:11:59.221Z,100.00
2018-11-28T03:14:30.706Z,100.00
2018-11-28T03:17:01.342Z,100.00
2018-11-28T03:19:31.237Z,100.00
2018-11-28T03:22:01.476Z,100.00
2018-11-28T03:24:32.193Z,100.00
2018-11-28T03:27:02.322Z,100.00
2018-11-28T03:29:32.290Z,100.00
2018-11-28T03:32:02.694Z,100.00
2018-11-28T03:34:33.265Z,100.00
2018-11-28T03:37:01.833Z,100.00
2018-11-28T03:39:30.353Z,100.00
2018-11-28T03:42:01.848Z,100.00
2018-11-28T03:44:31.963Z,100.00
2018-11-28T03:47:00.764Z,100.00
2018-11-28T03:49:31.456Z,100.00
2018-11-28T03:52:02.498Z,100.00
2018-11-28T03:54:32.682Z,100.00
2018-11-28T03:57:04.760Z,100.00
2018-11-28T03:59:33.321Z,100.00
2018-11-28T04:02:05.812Z,100.00
2018-11-28T04:04:34.990Z,100.00
2018-11-28T04:07:06.020Z,100.00
2018-11-28T04:09:36.601Z,100.00
2018-11-28T04:12:08.369Z,100.00
2018-11-28T04:14:37.743Z,100.00
2018-11-28T04:17:07.574Z,100.00
2018-11-28T04:19:37.659Z,100.00
2018-11-28T04:22:07.061Z,100.00
2018-11-28T04:24:36.194Z,100.00
2018-11-28T04:27:06.315Z,100.00
2018-11-28T04:29:35.244Z,100.00
2018-11-28T04:32:03.754Z,100.00
2018-11-28T04:34:32.301Z,100.00
2018-11-28T04:37:00.757Z,100.00
2018-11-28T04:39:29.265Z,100.00
2018-11-28T04:41:58.020Z,100.00
2018-11-28T04:44:26.633Z,100.00
2018-11-28T04:46:55.192Z,100.00
2018-11-28T04:49:25.349Z,100.00
2018-11-28T04:51:55.592Z,100.00
2018-11-28T04:54:25.005Z,100.00
2018-11-28T04:56:53.627Z,100.00
2018-11-28T04:59:23.337Z,100.00
2018-11-28T05:01:51.911Z,100.00
2018-11-28T05:04:22.928Z,100.00
2018-11-28T05:07:56.453Z,100.00
2018-11-28T05:10:28.113Z,100.00
2018-11-28T05:12:59.201Z,100.00
2018-11-28T05:15:29.077Z,100.00
2018-11-28T05:17:58.843Z,100.00
2018-11-28T05:20:33.666Z,100.00
2018-11-28T05:23:04.811Z,100.00
2018-11-28T05:25:35.916Z,100.00
2018-11-28T05:28:04.853Z,100.00
2018-11-28T05:30:35.713Z,100.00
2018-11-28T05:33:03.211Z,100.00
2018-11-28T05:35:36.432Z,100.00
2018-11-28T05:38:09.739Z,100.00
2018-11-28T05:40:38.594Z,100.00
2018-11-28T05:43:07.308Z,100.00
2018-11-28T05:45:36.028Z,100.00
2018-11-28T05:48:05.325Z,100.00
2018-11-28T05:50:33.961Z,100.00
2018-11-28T05:53:03.412Z,100.00
2018-11-28T05:55:32.796Z,100.00
2018-11-28T05:58:03.828Z,100.00
2018-11-28T06:00:36.540Z,100.00
2018-11-28T06:03:06.369Z,100.00
2018-11-28T06:05:35.512Z,100.00
2018-11-28T06:08:06.549Z,100.00
2018-11-28T06:10:36.632Z,100.00
2018-11-28T06:13:05.337Z,100.00
2018-11-28T06:15:34.964Z,100.00
2018-11-28T06:18:05.171Z,100.00
2018-11-28T06:20:34.504Z,100.00
2018-11-28T06:23:03.951Z,100.00
2018-11-28T06:25:33.636Z,100.00
2018-11-28T06:28:04.644Z,100.00
2018-11-28T06:30:34.075Z,100.00
2018-11-28T06:33:05.293Z,100.00
2018-11-28T06:35:35.847Z,100.00
2018-11-28T06:38:06.383Z,100.00
2018-11-28T06:40:36.204Z,100.00
2018-11-28T06:43:05.989Z,100.00
2018-11-28T06:45:35.625Z,100.00
2018-11-28T06:48:04.260Z,100.00
2018-11-28T06:50:32.745Z,100.00
2018-11-28T06:53:02.678Z,100.00
2018-11-28T06:55:31.157Z,100.00
2018-11-28T06:57:59.654Z,100.00
2018-11-28T07:00:28.134Z,100.00
2018-11-28T07:02:56.715Z,100.00
2018-11-28T07:05:27.130Z,100.00
2018-11-28T07:07:55.788Z,100.00
2018-11-28T07:10:24.288Z,100.00
2018-11-28T07:12:52.725Z,100.00
2018-11-28T07:15:23.498Z,100.00
2018-11-28T07:17:52.046Z,100.00
2018-11-28T07:20:22.118Z,100.00
2018-11-28T07:22:51.733Z,100.00
2018-11-28T07:25:22.159Z,100.00
2018-11-28T07:27:53.612Z,100.00
2018-11-28T07:30:24.970Z,100.00
2018-11-28T07:32:56.369Z,100.00
2018-11-28T07:35:25.811Z,100.00
2018-11-28T07:37:55.929Z,100.00
2018-11-28T07:40:28.100Z,99.98
2018-11-28T07:43:08.150Z,98.53
2018-11-28T07:45:39.877Z,97.91
2018-11-28T07:48:08.453Z,97.07
2018-11-28T07:50:38.904Z,96.06
2018-11-28T07:53:09.709Z,95.62
2018-11-28T07:55:39.974Z,94.88
2018-11-28T07:58:10.736Z,94.87
2018-11-28T08:00:41.447Z,94.16
2018-11-28T08:03:12.378Z,93.20
2018-11-28T08:05:42.495Z,92.97
2018-11-28T08:08:14.546Z,92.71
2018-11-28T08:10:45.627Z,93.40
2018-11-28T08:13:16.823Z,92.83
2018-11-28T08:15:48.320Z,91.83
2018-11-28T08:18:18.627Z,92.76
2018-11-28T08:20:48.438Z,91.45
2018-11-28T08:23:19.171Z,92.27
2018-11-28T08:25:50.106Z,93.17
2018-11-28T08:28:20.632Z,92.96
2018-11-28T08:31:21.276Z,92.30
2018-11-28T08:33:51.971Z,90.99
2018-11-28T08:36:21.922Z,90.13
2018-11-28T08:38:51.630Z,90.59
2018-11-28T08:41:21.790Z,89.80
2018-11-28T08:43:51.453Z,89.84
2018-11-28T08:46:21.607Z,89.59
2018-11-28T08:48:51.902Z,88.04
2018-11-28T08:51:21.920Z,87.93
2018-11-28T08:53:51.731Z,86.32
2018-11-28T08:56:21.390Z,86.29
2018-11-28T08:58:51.357Z,85.34
2018-11-28T09:01:20.831Z,84.91
2018-11-28T09:03:50.360Z,84.59
2018-11-28T09:06:20.072Z,83.83
2018-11-28T09:08:49.679Z,84.92
2018-11-28T09:11:20.725Z,84.89
2018-11-28T09:13:50.844Z,84.67
2018-11-28T09:16:20.534Z,85.16
2018-11-28T09:18:49.854Z,85.40
2018-11-28T09:21:19.200Z,84.36
2018-11-28T09:23:49.220Z,83.04
2018-11-28T09:26:19.476Z,84.15
2018-11-28T09:28:49.930Z,83.83
2018-11-28T09:31:21.586Z,84.47
2018-11-28T09:33:53.332Z,86.44
2018-11-28T09:36:24.107Z,87.02
2018-11-28T09:38:52.965Z,86.35
2018-11-28T09:41:23.152Z,86.42
2018-11-28T09:43:53.060Z,87.63
2018-11-28T09:46:23.169Z,85.85
2018-11-28T09:48:52.983Z,87.78
2018-11-28T09:51:22.810Z,89.48
2018-11-28T09:53:52.040Z,89.30
2018-11-28T09:56:21.427Z,91.01
2018-11-28T09:58:50.320Z,91.06
2018-11-28T10:01:19.630Z,90.48
2018-11-28T10:03:50.760Z,90.77
2018-11-28T10:06:19.833Z,91.12
2018-11-28T10:08:49.419Z,90.89
2018-11-28T10:11:18.941Z,92.10
2018-11-28T10:13:49.816Z,91.16
2018-11-28T10:16:18.957Z,90.63
2018-11-28T10:18:47.876Z,92.15
2018-11-28T10:21:16.636Z,91.84
2018-11-28T10:23:45.741Z,91.97
2018-11-28T10:26:14.415Z,93.52
2018-11-28T10:28:43.624Z,92.01
2018-11-28T10:31:12.999Z,92.44
2018-11-28T10:33:42.170Z,92.87
2018-11-28T10:36:12.513Z,93.37
2018-11-28T10:38:41.963Z,93.25
2018-11-28T10:41:11.016Z,92.65
2018-11-28T10:43:40.281Z,93.16
2018-11-28T10:46:09.673Z,92.85
2018-11-28T10:48:39.191Z,93.08
2018-11-28T10:51:15.042Z,93.16
2018-11-28T10:53:44.676Z,92.83
2018-11-28T10:56:13.459Z,93.86
2018-11-28T10:58:42.746Z,93.79
2018-11-28T11:01:28.676Z,93.24
2018-11-28T11:04:03.976Z,93.93
2018-11-28T11:06:37.958Z,94.56
2018-11-28T11:09:14.700Z,93.71
2018-11-28T11:11:48.664Z,94.10
2018-11-28T11:14:49.001Z,94.62
2018-11-28T11:17:18.254Z,94.35
2018-11-28T11:19:46.719Z,93.28
2018-11-28T11:22:15.264Z,93.84
2018-11-28T11:24:43.714Z,93.39
2018-11-28T11:27:12.201Z,93.77
2018-11-28T11:29:40.983Z,93.22
2018-11-28T11:32:09.208Z,93.81
2018-11-28T11:34:37.592Z,93.76
2018-11-28T11:37:06.473Z,93.04
2018-11-28T11:39:34.991Z,92.78
2018-11-28T11:42:03.498Z,92.31
2018-11-28T11:44:31.917Z,92.09
2018-11-28T11:47:00.303Z,92.18
2018-11-28T11:49:28.801Z,91.18
2018-11-28T11:51:57.254Z,90.67
2018-11-28T11:54:25.686Z,90.63
2018-11-28T11:56:54.193Z,90.89
2018-11-28T11:59:22.650Z,90.58
2018-11-28T12:01:54.719Z,90.60
2018-11-28T12:04:20.336Z,90.17
2018-11-28T12:06:48.817Z,90.89
2018-11-28T12:09:17.207Z,89.66
2018-11-28T12:11:45.670Z,90.27
2018-11-28T12:14:14.196Z,90.32
2018-11-28T12:16:42.656Z,90.82
2018-11-28T12:19:11.329Z,90.70
2018-11-28T12:21:39.809Z,90.51
2018-11-28T12:24:08.300Z,90.69
2018-11-28T12:26:36.853Z,91.01
2018-11-28T12:29:05.972Z,91.48
2018-11-28T12:31:34.453Z,92.02
2018-11-28T12:34:02.920Z,92.01
2018-11-28T12:36:31.456Z,92.17
2018-11-28T12:39:00.092Z,92.24
2018-11-28T12:41:28.601Z,92.62
2018-11-28T12:43:57.091Z,93.27
2018-11-28T12:46:25.546Z,93.25
2018-11-28T12:48:54.053Z,92.99
2018-11-28T12:51:22.534Z,93.35
2018-11-28T12:53:51.400Z,93.40
2018-11-28T12:56:19.805Z,94.31
2018-11-28T12:58:48.320Z,93.71
2018-11-28T13:01:16.729Z,93.94
2018-11-28T13:03:45.265Z,94.36
2018-11-28T13:06:13.774Z,94.03
2018-11-28T13:08:42.151Z,94.52
2018-11-28T13:11:10.688Z,94.36
2018-11-28T13:13:39.085Z,94.52
2018-11-28T13:16:07.510Z,94.96
2018-11-28T13:18:35.988Z,95.06
2018-11-28T13:21:04.473Z,94.81
2018-11-28T13:23:32.928Z,94.78
2018-11-28T13:26:01.480Z,95.41
2018-11-28T13:28:29.855Z,94.70
2018-11-28T13:30:58.304Z,95.05
2018-11-28T13:33:26.719Z,95.06
2018-11-28T13:35:55.390Z,95.27
2018-11-28T13:38:23.873Z,94.84
2018-11-28T13:40:52.532Z,95.58
2018-11-28T13:43:20.967Z,95.38
2018-11-28T13:45:49.918Z,95.40
2018-11-28T13:48:18.341Z,94.83
2018-11-28T13:50:46.981Z,95.51
2018-11-28T13:53:17.670Z,95.38
2018-11-28T13:58:29.923Z,95.79
2018-11-28T14:00:58.454Z,95.68
2018-11-28T14:03:26.891Z,95.00
2018-11-28T14:05:55.405Z,95.52
2018-11-28T14:08:24.375Z,95.62
2018-11-28T14:10:54.229Z,95.59
2018-11-28T14:13:23.668Z,95.48
2018-11-28T14:15:53.713Z,95.87
2018-11-28T14:18:22.439Z,95.34
2018-11-28T14:20:50.926Z,96.55
2018-11-28T14:23:19.424Z,96.15
2018-11-28T14:25:47.962Z,96.44
2018-11-28T14:28:16.420Z,96.40
2018-11-28T14:30:45.429Z,95.58
2018-11-28T14:33:13.830Z,96.05
2018-11-28T14:35:42.414Z,96.00
2018-11-28T14:38:10.879Z,95.88
2018-11-28T14:40:39.302Z,95.84
2018-11-28T14:43:08.168Z,96.10
2018-11-28T14:45:37.087Z,95.49
2018-11-28T14:48:05.497Z,96.36
2018-11-28T14:50:34.064Z,95.62
2018-11-28T14:53:03.370Z,96.24
2018-11-28T14:55:36.157Z,95.95
2018-11-28T14:58:04.770Z,96.62
2018-11-28T15:00:33.537Z,96.96
2018-11-28T15:03:04.819Z,97.44
2018-11-28T15:05:44.475Z,96.35
2018-11-28T15:08:16.070Z,96.94
2018-11-28T15:11:15.585Z,97.03
2018-11-28T15:13:44.553Z,97.28
2018-11-28T15:16:13.034Z,96.64
2018-11-28T15:18:41.462Z,96.37
2018-11-28T15:21:11.096Z,97.01
2018-11-28T15:23:40.061Z,97.27
2018-11-28T15:26:08.479Z,97.50
2018-11-28T15:28:36.859Z,97.14
2018-11-28T15:31:05.518Z,96.51
2018-11-28T15:33:34.005Z,95.66
2018-11-28T15:36:02.387Z,96.56
2018-11-28T15:38:30.790Z,96.06
2018-11-28T15:40:59.214Z,97.01
2018-11-28T15:43:27.568Z,96.70
2018-11-28T15:45:56.516Z,96.80
2018-11-28T15:48:25.021Z,96.20
2018-11-28T15:50:53.478Z,96.90
2018-11-28T15:53:22.325Z,96.84
2018-11-28T15:55:50.873Z,96.72
2018-11-28T15:58:19.517Z,96.52
2018-11-28T16:00:49.405Z,96.77
2018-11-28T16:03:17.923Z,96.79
2018-11-28T16:05:50.681Z,96.72
2018-11-28T16:08:20.833Z,96.41
2018-11-28T16:10:49.268Z,96.60
2018-11-28T16:13:21.559Z,96.47
2018-11-28T16:15:54.317Z,96.89
2018-11-28T16:18:22.881Z,96.67
2018-11-28T16:20:51.714Z,96.20
2018-11-28T16:23:20.528Z,95.84
2018-11-28T16:25:49.044Z,95.60
2018-11-28T16:28:18.176Z,95.72
2018-11-28T16:30:47.022Z,95.86
2018-11-28T16:33:15.549Z,95.87
2018-11-28T16:35:45.029Z,95.40
2018-11-28T16:38:13.500Z,95.15
2018-11-28T16:40:41.908Z,95.74
2018-11-28T16:43:11.088Z,95.24
2018-11-28T16:45:39.540Z,95.71
2018-11-28T16:48:07.957Z,95.23
2018-11-28T16:50:36.448Z,95.11
2018-11-28T16:53:06.286Z,94.95
2018-11-28T16:55:34.741Z,95.39
2018-11-28T16:58:03.239Z,94.28
2018-11-28T17:00:32.600Z,94.59
2018-11-28T17:03:01.065Z,94.81
2018-11-28T17:05:29.650Z,94.12
2018-11-28T17:07:58.124Z,94.73
2018-11-28T17:10:28.782Z,93.79
2018-11-28T17:12:58.116Z,94.20
2018-11-28T17:15:27.212Z,93.98
2018-11-28T17:17:55.926Z,94.29
2018-11-28T17:20:25.693Z,94.08
2018-11-28T17:22:56.782Z,93.89
2018-11-28T17:25:30.675Z,93.57
2018-11-28T17:27:59.826Z,93.69
2018-11-28T17:30:29.871Z,93.77
2018-11-28T17:32:58.439Z,93.61
2018-11-28T17:35:27.245Z,93.43
2018-11-28T17:37:55.701Z,93.93
2018-11-28T17:40:25.471Z,93.06
2018-11-28T17:42:55.242Z,93.47
2018-11-28T17:45:23.916Z,93.54
2018-11-28T17:47:52.993Z,93.37
2018-11-28T17:50:23.370Z,93.24
2018-11-28T17:53:09.757Z,92.75
2018-11-28T17:55:43.416Z,92.53
2018-11-28T17:58:11.385Z,93.03
2018-11-28T18:00:40.080Z,92.52
2018-11-28T18:03:08.580Z,91.84
2018-11-28T18:05:37.045Z,92.28
2018-11-28T18:08:06.561Z,91.94
2018-11-28T18:10:35.296Z,92.29
2018-11-28T18:13:08.651Z,91.97
2018-11-28T18:15:37.224Z,91.58
2018-11-28T18:18:08.266Z,92.00
2018-11-28T18:20:37.263Z,92.48
2018-11-28T18:23:07.891Z,91.81
2018-11-28T18:25:36.733Z,91.75
2018-11-28T18:28:06.162Z,91.04
2018-11-28T18:30:34.839Z,91.60
2018-11-28T18:33:04.574Z,91.59
2018-11-28T18:35:33.483Z,90.85
2018-11-28T18:38:02.798Z,91.50
2018-11-28T18:40:32.906Z,91.53
2018-11-28T18:43:01.453Z,91.28
2018-11-28T18:45:31.796Z,90.99
2018-11-28T18:48:03.157Z,91.04
2018-11-28T18:50:33.190Z,91.17
2018-11-28T18:53:02.964Z,90.54
2018-11-28T18:55:32.217Z,90.57
2018-11-28T18:58:04.629Z,90.19
2018-11-28T19:00:34.430Z,90.73
2018-11-28T19:03:03.190Z,90.38
2018-11-28T19:05:31.571Z,90.53
2018-11-28T19:08:00.143Z,90.37
2018-11-28T19:10:28.621Z,90.59
2018-11-28T19:12:58.329Z,90.31
2018-11-28T19:15:29.365Z,91.10
2018-11-28T19:17:58.513Z,91.59
2018-11-28T19:20:27.050Z,91.15
2018-11-28T19:22:57.735Z,91.51
2018-11-28T19:25:27.892Z,91.78
2018-11-28T19:27:56.658Z,91.41
2018-11-28T19:30:41.174Z,91.08
2018-11-28T19:33:11.656Z,91.69
2018-11-28T19:35:40.185Z,91.95
2018-11-28T19:38:10.167Z,92.01
2018-11-28T19:40:56.520Z,91.91
2018-11-28T19:43:24.933Z,91.97
2018-11-28T19:45:53.312Z,91.85
2018-11-28T19:48:21.741Z,92.49
2018-11-28T19:50:50.218Z,92.74
2018-11-28T19:53:18.819Z,92.44
2018-11-28T19:55:47.510Z,92.39
2018-11-28T19:58:16.519Z,92.40
2018-11-28T20:00:46.408Z,91.97
2018-11-28T20:03:14.961Z,92.74
2018-11-28T20:05:44.271Z,92.83
2018-11-28T20:08:13.074Z,92.55
2018-11-28T20:10:41.764Z,92.87
2018-11-28T20:13:11.501Z,92.74
2018-11-28T20:15:42.252Z,93.16
2018-11-28T20:18:10.927Z,92.46
2018-11-28T20:20:39.362Z,93.11
2018-11-28T20:23:08.287Z,92.79
2018-11-28T20:25:37.466Z,93.50
2018-11-28T20:28:07.981Z,93.37
2018-11-28T20:30:40.169Z,93.29
2018-11-28T20:33:09.035Z,93.57
2018-11-28T20:35:38.096Z,93.15
2018-11-28T20:38:07.825Z,93.35
2018-11-28T20:40:36.593Z,93.97
2018-11-28T20:43:05.410Z,93.84
2018-11-28T20:45:33.964Z,93.64
2018-11-28T20:48:02.676Z,93.25
2018-11-28T20:50:32.812Z,93.56
2018-11-28T20:53:07.601Z,93.99
2018-11-28T20:55:37.343Z,94.06
2018-11-28T20:58:06.189Z,94.14
2018-11-28T21:00:34.671Z,94.37
2018-11-28T21:03:03.221Z,94.28
2018-11-28T21:05:32.399Z,94.38
2018-11-28T21:08:01.128Z,93.54
2018-11-28T21:10:35.700Z,94.47
2018-11-28T21:13:08.989Z,94.52
2018-11-28T21:15:37.561Z,94.34
2018-11-28T21:18:06.978Z,94.34
2018-11-28T21:20:35.567Z,93.64
2018-11-28T21:23:08.565Z,94.08
2018-11-28T21:25:37.429Z,93.90
2018-11-28T21:28:06.045Z,94.06
2018-11-28T21:30:34.533Z,94.47
2018-11-28T21:33:03.100Z,94.27
2018-11-28T21:35:36.413Z,93.69
2018-11-28T21:38:05.082Z,93.90
2018-11-28T21:40:33.577Z,94.79
2018-11-28T21:43:02.569Z,94.93
2018-11-28T21:45:31.057Z,94.51
2018-11-28T21:47:59.521Z,94.39
2018-11-28T21:50:28.059Z,94.76
2018-11-28T21:52:56.573Z,95.03
2018-11-28T21:55:25.436Z,95.14
2018-11-28T21:57:54.533Z,95.05
2018-11-28T22:00:24.921Z,95.33
2018-11-28T22:02:54.056Z,94.57
2018-11-28T22:05:22.937Z,94.97
2018-11-28T22:07:51.850Z,95.26
2018-11-28T22:10:21.383Z,95.10
2018-11-28T22:12:50.135Z,95.21
2018-11-28T22:15:19.332Z,94.89
2018-11-28T22:17:49.913Z,95.67
2018-11-28T22:20:18.438Z,95.08
2018-11-28T22:22:46.960Z,95.41
2018-11-28T22:25:22.944Z,95.68
2018-11-28T22:27:52.243Z,96.28
2018-11-28T22:30:22.635Z,95.63
2018-11-28T22:32:51.796Z,96.19
2018-11-28T22:35:20.358Z,96.52
2018-11-28T22:37:48.917Z,96.00
2018-11-28T22:40:20.744Z,96.11
2018-11-28T22:42:49.304Z,95.75
2018-11-28T22:45:23.062Z,96.30
2018-11-28T22:47:51.572Z,96.29
2018-11-28T22:50:20.075Z,96.68
2018-11-28T22:52:49.497Z,96.51
2018-11-28T22:55:18.363Z,96.62
2018-11-28T22:57:47.851Z,96.92
2018-11-28T23:00:23.132Z,96.31
2018-11-28T23:02:55.400Z,96.78
2018-11-28T23:05:28.104Z,96.97
2018-11-28T23:07:58.086Z,96.46
2018-11-28T23:10:29.824Z,96.86
2018-11-28T23:12:58.543Z,96.27
2018-11-28T23:15:26.994Z,96.48
2018-11-28T23:17:55.621Z,96.03
2018-11-28T23:20:23.937Z,96.31
2018-11-28T23:22:52.833Z,96.16
2018-11-28T23:25:21.401Z,95.86
2018-11-28T23:27:49.815Z,95.84
2018-11-28T23:30:19.188Z,95.46
2018-11-28T23:32:48.360Z,96.05
2018-11-28T23:35:17.057Z,95.58
2018-11-28T23:37:46.636Z,95.50
2018-11-28T23:40:23.331Z,95.52
2018-11-28T23:42:52.433Z,95.69
2018-11-28T23:45:20.976Z,95.97
2018-11-28T23:47:49.655Z,95.52
2018-11-28T23:50:24.943Z,95.61
2018-11-28T23:52:55.047Z,95.00
2018-11-28T23:55:24.661Z,94.64
2018-11-28T23:57:53.270Z,94.95
